Time;durP1;ratioP1;P1;durP2;ratioP2;P2;SDS_P1;SDS_P2;PMS_P1;PMS_P2;Temp;Humidity;BMP_temperature;BMP_pressure;BME280_temperature;BME280_humidity;BME280_pressure;Samples;Min_cycle;Max_cycle;Signal;HPM_P1;HPM_P2
2023/01/02 06:03:46;;;;;;;6.82;3.20;;;9.90;99.90;;;;;;4867292;29;20073;-78
2023/01/02 06:06:13;;;;;;;5.85;2.97;;;9.80;99.90;;;;;;4877780;29;20072;-77
2023/01/02 06:08:39;;;;;;;5.88;3.05;;;9.90;99.90;;;;;;4867614;29;20291;-79
2023/01/02 06:11:07;;;;;;;6.47;3.33;;;9.80;99.90;;;;;;4868240;29;20183;-78
2023/01/02 06:13:34;;;;;;;7.18;3.30;;;9.80;99.90;;;;;;4868974;29;20061;-79
2023/01/02 06:16:01;;;;;;;7.38;3.33;;;9.80;99.90;;;;;;4869694;29;20037;-78
2023/01/02 06:18:30;;;;;;;7.18;3.60;;;9.80;99.90;;;;;;4863133;29;20021;-78
2023/01/02 06:20:59;;;;;;;;;;;9.80;99.90;;;;;;4850600;29;20052;-78
2023/01/02 06:23:25;;;;;;;9.40;3.75;;;9.70;99.90;;;;;;4850811;29;19927;-78
2023/01/02 06:25:51;;;;;;;6.63;3.20;;;9.70;99.90;;;;;;4850906;29;20030;-77
2023/01/02 06:28:16;;;;;;;8.18;3.72;;;9.60;99.90;;;;;;4849697;29;20086;-78
2023/01/02 06:30:43;;;;;;;9.13;3.55;;;9.60;99.90;;;;;;4850490;29;20310;-78
2023/01/02 06:33:09;;;;;;;6.95;3.22;;;9.50;99.90;;;;;;4851267;29;20046;-78
2023/01/02 06:35:35;;;;;;;6.72;3.88;;;9.50;99.90;;;;;;4855271;29;20025;-78
2023/01/02 06:38:01;;;;;;;6.28;3.03;;;9.50;99.90;;;;;;4869546;29;20090;-76
2023/01/02 06:40:26;;;;;;;7.68;3.42;;;9.50;99.90;;;;;;4869246;29;20056;-80
2023/01/02 06:42:52;;;;;;;7.15;3.63;;;9.50;99.90;;;;;;4869524;29;20029;-77
2023/01/02 06:45:18;;;;;;;7.10;3.65;;;9.60;99.90;;;;;;4883666;29;20199;-79
2023/01/02 06:47:44;;;;;;;10.38;3.90;;;9.60;99.90;;;;;;4868073;29;20045;-79
2023/01/02 06:50:10;;;;;;;8.23;3.58;;;9.70;99.90;;;;;;4869525;29;20044;-78
2023/01/02 06:52:35;;;;;;;8.75;3.20;;;9.70;99.90;;;;;;4867880;29;20105;-78
2023/01/02 06:55:04;;;;;;;7.15;3.33;;;9.60;99.90;;;;;;4867884;29;20037;-76
2023/01/02 06:57:30;;;;;;;6.72;3.60;;;9.60;99.90;;;;;;4868442;29;20247;-77
2023/01/02 06:59:56;;;;;;;7.75;3.30;;;9.70;99.90;;;;;;4869325;29;20040;-79
2023/01/02 07:02:21;;;;;;;7.95;3.55;;;9.60;99.90;;;;;;4866710;29;20068;-77
2023/01/02 07:04:47;;;;;;;6.90;3.50;;;9.60;99.90;;;;;;4849994;29;20243;-77
2023/01/02 07:07:13;;;;;;;6.70;3.33;;;9.60;99.90;;;;;;4863313;29;20022;-78
2023/01/02 07:09:41;;;;;;;6.15;3.13;;;9.60;99.90;;;;;;4854035;29;20108;-78
2023/01/02 07:12:07;;;;;;;9.57;3.58;;;9.60;99.90;;;;;;4870646;29;20104;-78
2023/01/02 07:14:33;;;;;;;9.00;3.50;;;9.60;99.90;;;;;;4872467;29;20033;-77
2023/01/02 07:16:59;;;;;;;8.40;3.35;;;9.60;99.90;;;;;;4872341;29;20056;-77
2023/01/02 07:19:25;;;;;;;13.32;5.15;;;9.60;99.90;;;;;;4871571;29;20033;-78
2023/01/02 07:21:51;;;;;;;10.95;4.45;;;9.60;99.90;;;;;;4868767;29;20026;-77
2023/01/02 07:24:16;;;;;;;10.85;4.32;;;9.50;99.90;;;;;;4853293;29;20037;-77
2023/01/02 07:26:42;;;;;;;9.85;3.90;;;9.50;99.90;;;;;;4853617;29;20072;-77
2023/01/02 07:29:08;;;;;;;7.03;3.47;;;9.50;99.90;;;;;;4853110;29;20102;-78
2023/01/02 07:31:34;;;;;;;8.93;4.10;;;9.50;99.90;;;;;;4853351;29;20354;-77
2023/01/02 07:34:00;;;;;;;9.27;4.10;;;9.50;99.90;;;;;;4852577;29;20030;-77
2023/01/02 07:36:26;;;;;;;7.18;3.40;;;9.40;99.90;;;;;;4855232;29;20204;-78
2023/01/02 07:38:54;;;;;;;9.88;4.07;;;9.50;99.90;;;;;;4869211;29;20034;-78
2023/01/02 07:41:22;;;;;;;9.07;4.13;;;9.50;99.90;;;;;;4853745;29;20037;-78
2023/01/02 07:43:48;;;;;;;8.50;4.00;;;9.40;99.90;;;;;;4852179;29;20325;-78
2023/01/02 07:46:17;;;;;;;8.25;3.55;;;9.40;99.90;;;;;;4853892;29;20038;-77
2023/01/02 07:49:06;;;;;;;7.03;3.97;;;9.40;99.90;;;;;;4853111;29;20037;-78
2023/01/02 07:51:35;;;;;;;9.00;4.22;;;9.30;99.90;;;;;;4851860;29;20204;-77
2023/01/02 07:54:03;;;;;;;11.68;4.18;;;9.40;99.90;;;;;;4853520;29;20034;-78
2023/01/02 07:56:29;;;;;;;14.13;6.38;;;9.30;99.90;;;;;;4852000;29;20319;-77
2023/01/02 07:58:55;;;;;;;8.82;4.93;;;9.40;99.90;;;;;;4857270;29;20097;-76
2023/01/02 08:01:21;;;;;;;9.95;3.95;;;9.40;99.90;;;;;;4859391;29;20041;-78
2023/01/02 08:03:46;;;;;;;11.25;4.93;;;9.40;99.90;;;;;;4856130;29;20042;-77
2023/01/02 08:06:18;;;;;;;9.02;3.90;;;9.50;99.90;;;;;;4855916;29;20045;-77
2023/01/02 08:08:48;;;;;;;7.03;4.13;;;9.50;99.90;;;;;;4853380;29;20029;-79
2023/01/02 08:11:16;;;;;;;8.80;4.20;;;9.50;99.90;;;;;;4852047;29;20298;-75
2023/01/02 08:13:43;;;;;;;10.88;4.60;;;9.60;99.90;;;;;;4851165;29;20289;-75
2023/01/02 08:16:27;;;;;;;9.98;3.97;;;9.60;99.90;;;;;;4853304;29;20030;-79
2023/01/02 08:18:54;;;;;;;9.18;4.47;;;9.60;99.90;;;;;;4852708;29;20327;-79
2023/01/02 08:21:23;;;;;;;9.50;5.03;;;9.60;99.90;;;;;;4851991;29;20038;-78
2023/01/02 08:23:49;;;;;;;10.80;4.53;;;9.70;99.90;;;;;;4851975;29;20109;-78
2023/01/02 08:26:15;;;;;;;11.45;4.60;;;9.70;99.90;;;;;;4852839;29;20037;-78
2023/01/02 08:28:45;;;;;;;13.35;4.60;;;9.80;99.90;;;;;;4853109;29;20026;-78
2023/01/02 08:31:17;;;;;;;10.57;4.97;;;9.90;99.90;;;;;;4853306;29;20068;-79
2023/01/02 08:33:43;;;;;;;10.13;4.90;;;10.00;99.90;;;;;;4851847;29;20204;-78
2023/01/02 08:36:10;;;;;;;10.00;4.18;;;10.10;99.90;;;;;;4853482;29;20041;-78
2023/01/02 08:38:36;;;;;;;11.23;4.40;;;10.20;99.90;;;;;;4869799;29;20052;-77
2023/01/02 08:41:02;;;;;;;19.98;9.77;;;10.20;99.90;;;;;;4852490;29;20042;-79
2023/01/02 08:43:30;;;;;;;11.02;4.93;;;10.30;99.90;;;;;;4853159;29;20072;-77
2023/01/02 08:45:55;;;;;;;12.45;5.55;;;10.40;99.90;;;;;;4851243;29;20172;-75
2023/01/02 08:48:21;;;;;;;14.23;5.55;;;10.40;99.90;;;;;;4851607;29;20086;-78
2023/01/02 08:50:48;;;;;;;9.60;4.60;;;10.50;99.90;;;;;;4852526;29;20048;-78
2023/01/02 08:53:14;;;;;;;12.25;4.93;;;10.50;99.90;;;;;;4851892;29;20086;-80
2023/01/02 08:55:39;;;;;;;11.35;4.30;;;10.60;99.90;;;;;;4851529;29;20244;-77
2023/01/02 08:58:05;;;;;;;12.93;4.78;;;10.60;99.90;;;;;;4852436;29;20036;-78
2023/01/02 09:00:31;;;;;;;10.45;4.15;;;10.70;99.90;;;;;;4851505;29;20033;-78
2023/01/02 09:03:00;;;;;;;9.55;5.03;;;10.80;99.90;;;;;;4851673;29;20050;-77
2023/01/02 09:05:29;;;;;;;8.75;4.30;;;10.80;99.90;;;;;;4848922;29;20026;-79
2023/01/02 09:07:56;;;;;;;13.13;4.20;;;10.80;99.90;;;;;;4832688;29;20079;-77
2023/01/02 09:10:22;;;;;;;12.38;4.30;;;10.80;99.90;;;;;;4833948;29;20035;-78
2023/01/02 09:12:47;;;;;;;10.38;4.30;;;10.90;99.90;;;;;;4833756;29;20050;-79
2023/01/02 09:15:13;;;;;;;9.68;4.30;;;10.90;99.90;;;;;;4834141;29;20041;-78
2023/01/02 09:17:39;;;;;;;9.80;4.30;;;10.90;99.90;;;;;;4832229;29;20037;-78
2023/01/02 09:20:05;;;;;;;10.15;4.78;;;11.00;99.90;;;;;;4834466;29;20071;-77
2023/01/02 09:22:31;;;;;;;9.43;4.10;;;11.00;99.90;;;;;;4849641;29;20041;-76
2023/01/02 09:24:57;;;;;;;7.97;3.70;;;11.10;99.90;;;;;;4850063;29;20117;-76
2023/01/02 09:27:23;;;;;;;16.75;7.85;;;11.20;99.90;;;;;;4850525;29;20045;-76
2023/01/02 09:29:49;;;;;;;16.33;9.40;;;11.30;99.90;;;;;;4851367;29;20351;-77
2023/01/02 09:32:15;;;;;;;13.30;6.15;;;11.40;99.90;;;;;;4852044;29;20138;-77
2023/01/02 09:34:41;;;;;;;13.73;6.93;;;11.40;99.90;;;;;;4850410;29;20034;-78
2023/01/02 09:37:06;;;;;;;13.43;7.00;;;11.50;99.90;;;;;;4858469;29;20025;-77
2023/01/02 09:39:36;;;;;;;34.97;16.25;;;11.60;99.90;;;;;;4869294;29;20061;-79
2023/01/02 09:42:07;;;;;;;38.83;16.05;;;11.80;99.90;;;;;;4868916;29;20037;-78
2023/01/02 09:44:44;;;;;;;29.60;12.43;;;12.00;99.90;;;;;;4868656;29;20280;-77
2023/01/02 09:47:21;;;;;;;12.40;5.13;;;12.20;99.90;;;;;;4870045;29;20038;-77
2023/01/02 09:49:57;;;;;;;10.20;4.50;;;12.30;99.90;;;;;;4868564;29;20030;-77
2023/01/02 09:52:49;;;;;;;9.50;4.53;;;12.40;99.90;;;;;;4869976;29;20105;-76
2023/01/02 09:55:22;;;;;;;11.50;4.65;;;12.60;99.90;;;;;;4870176;29;20037;-78
2023/01/02 09:58:00;;;;;;;11.98;4.75;;;12.70;99.90;;;;;;4852528;29;20072;-77
2023/01/02 10:00:30;;;;;;;10.73;4.35;;;12.70;99.90;;;;;;4869702;29;20268;-77
2023/01/02 10:03:26;;;;;;;9.35;3.90;;;12.80;99.90;;;;;;4853262;29;20260;-74
2023/01/02 10:06:03;;;;;;;10.07;3.88;;;12.90;99.90;;;;;;4860697;29;20034;-74
2023/01/02 10:08:45;;;;;;;8.20;3.40;;;13.10;99.90;;;;;;4832616;29;20242;-74
2023/01/02 10:11:35;;;;;;;9.75;3.83;;;13.20;99.90;;;;;;4846709;29;20038;-75
2023/01/02 10:14:19;;;;;;;8.80;4.18;;;13.40;99.90;;;;;;4833085;29;20062;-74
2023/01/02 10:16:49;;;;;;;8.93;3.22;;;13.50;99.80;;;;;;4846774;29;20030;-74
2023/01/02 10:19:25;;;;;;;9.50;3.80;;;13.70;99.70;;;;;;4846802;29;20035;-74
2023/01/02 10:21:55;;;;;;;8.38;3.38;;;13.80;99.20;;;;;;4832530;29;20101;-74
2023/01/02 10:25:04;;;;;;;11.55;3.72;;;14.00;98.80;;;;;;4832600;29;20046;-75
2023/01/02 10:27:37;;;;;;;8.80;3.28;;;14.10;98.50;;;;;;4830996;29;20042;-74
2023/01/02 10:30:19;;;;;;;7.85;3.40;;;14.40;98.40;;;;;;4832688;29;20103;-74
2023/01/02 10:32:56;;;;;;;8.70;3.63;;;14.50;97.80;;;;;;4832497;29;20046;-72
2023/01/02 10:35:35;;;;;;;6.47;3.22;;;14.70;97.70;;;;;;4832558;29;20060;-76
2023/01/02 10:38:01;;;;;;;6.63;2.90;;;14.90;97.40;;;;;;4832081;29;20038;-75
2023/01/02 10:40:29;;;;;;;12.80;3.90;;;15.10;97.00;;;;;;4832600;29;20062;-76
2023/01/02 10:42:58;;;;;;;7.60;3.33;;;15.30;95.20;;;;;;4832305;29;20038;-75
2023/01/02 10:45:24;;;;;;;9.30;3.58;;;15.50;95.30;;;;;;4846545;29;20034;-76
2023/01/02 10:47:50;;;;;;;9.85;3.75;;;15.50;95.20;;;;;;4835493;29;20037;-74
2023/01/02 10:50:29;;;;;;;7.72;3.55;;;15.70;95.30;;;;;;4836307;29;20038;-75
2023/01/02 10:53:29;;;;;;;6.93;3.05;;;15.80;94.60;;;;;;4849478;29;20078;-76
2023/01/02 10:55:59;;;;;;;8.43;3.35;;;16.20;94.10;;;;;;4843586;29;20308;-74
2023/01/02 10:58:31;;;;;;;6.50;2.42;;;16.60;92.40;;;;;;4850090;29;20035;-76
2023/01/02 11:01:06;;;;;;;8.85;1.92;;;17.20;90.80;;;;;;4849313;29;20692;-76
2023/01/02 11:03:33;;;;;;;5.30;1.63;;;17.70;87.40;;;;;;4835470;29;20251;-75
2023/01/02 11:06:00;;;;;;;6.82;2.00;;;18.00;85.60;;;;;;4840081;29;20036;-76
2023/01/02 11:08:38;;;;;;;5.10;1.40;;;18.30;85.80;;;;;;4853000;29;20082;-76
2023/01/02 11:11:19;;;;;;;8.63;2.08;;;18.70;80.10;;;;;;4837423;29;20042;-74
2023/01/02 11:13:48;;;;;;;5.88;2.03;;;18.80;81.40;;;;;;4853259;29;20291;-75
2023/01/02 11:16:16;;;;;;;5.80;1.40;;;19.00;80.20;;;;;;4853969;29;20232;-76
2023/01/02 11:18:58;;;;;;;3.75;1.00;;;19.40;76.80;;;;;;4853390;29;20319;-75
2023/01/02 11:21:45;;;;;;;3.97;1.10;;;19.70;74.50;;;;;;4852845;29;20037;-75
2023/01/02 11:24:15;;;;;;;5.72;1.33;;;20.20;73.50;;;;;;4854141;29;20331;-75
2023/01/02 11:26:43;;;;;;;6.53;1.52;;;20.20;72.60;;;;;;4852034;29;20045;-76
2023/01/02 11:29:21;;;;;;;5.10;1.48;;;20.40;71.30;;;;;;4852759;29;20057;-75
2023/01/02 11:31:52;;;;;;;;;;;20.70;71.20;;;;;;4853370;29;20053;-75
2023/01/02 11:34:22;;;;;;;3.65;1.27;;;21.10;70.20;;;;;;4852755;29;19915;-77
2023/01/02 11:37:03;;;;;;;5.82;1.60;;;21.10;69.00;;;;;;4852960;29;20064;-74
2023/01/02 11:39:32;;;;;;;8.27;1.73;;;20.50;69.80;;;;;;4853407;29;20036;-74
2023/01/02 11:45:10;;;;;;;6.50;1.25;;;19.90;70.50;;;;;;4853284;29;20034;-75
2023/01/02 11:47:49;;;;;;;8.32;1.70;;;19.80;71.10;;;;;;4852850;29;20033;-76
2023/01/02 11:50:30;;;;;;;7.40;1.67;;;20.70;69.40;;;;;;4852954;29;20068;-75
2023/01/02 11:53:11;;;;;;;5.80;1.60;;;21.30;68.40;;;;;;4851766;29;20245;-75
2023/01/02 11:55:49;;;;;;;5.60;1.67;;;21.20;67.60;;;;;;4853210;29;20034;-75
2023/01/02 11:58:49;;;;;;;4.50;1.53;;;20.90;68.00;;;;;;4851153;29;20046;-74
2023/01/02 12:01:43;;;;;;;8.48;2.00;;;20.30;69.10;;;;;;4853190;29;20332;-75
2023/01/02 12:04:11;;;;;;;7.15;1.50;;;19.90;69.10;;;;;;4853583;29;20090;-76
2023/01/02 12:06:45;;;;;;;6.47;1.37;;;19.40;70.00;;;;;;4849539;29;20320;-75
2023/01/02 12:09:28;;;;;;;8.70;1.70;;;19.20;70.90;;;;;;4835425;29;20087;-75
2023/01/02 12:12:17;;;;;;;6.13;1.58;;;18.90;71.40;;;;;;4834742;29;20056;-76
2023/01/02 12:14:46;;;;;;;5.85;1.70;;;18.80;72.00;;;;;;4835706;29;20034;-76
2023/01/02 12:17:30;;;;;;;9.60;1.75;;;18.70;71.90;;;;;;4853381;29;20059;-76
2023/01/02 12:20:16;;;;;;;11.27;2.75;;;18.60;72.00;;;;;;4839978;29;20039;-76
2023/01/02 12:23:12;;;;;;;7.03;1.50;;;18.70;72.40;;;;;;4837973;29;20050;-76
2023/01/02 12:25:52;;;;;;;7.82;2.15;;;18.60;72.30;;;;;;4834506;29;20042;-76
2023/01/02 12:28:52;;;;;;;11.65;2.08;;;18.80;72.40;;;;;;4848445;29;20034;-75
2023/01/02 12:31:17;;;;;;;8.52;2.15;;;18.80;72.70;;;;;;4848996;29;20046;-74
2023/01/02 12:33:53;;;;;;;6.75;1.70;;;18.70;73.00;;;;;;4834503;29;20042;-76
2023/01/02 12:36:49;;;;;;;6.80;1.30;;;18.60;72.80;;;;;;4834669;29;20159;-76
2023/01/02 12:39:24;;;;;;;6.88;1.92;;;18.60;72.80;;;;;;4848751;29;20132;-75
2023/01/02 12:42:17;;;;;;;6.50;1.60;;;18.60;73.40;;;;;;4848021;29;20038;-76
2023/01/02 12:44:58;;;;;;;9.00;1.60;;;18.60;73.60;;;;;;4834295;29;20125;-75
2023/01/02 12:47:47;;;;;;;5.75;1.38;;;18.70;73.70;;;;;;4848582;29;20027;-76
2023/01/02 12:50:35;;;;;;;7.20;1.60;;;18.80;73.00;;;;;;4834294;29;20065;-75
2023/01/02 12:53:31;;;;;;;11.30;2.35;;;18.90;73.00;;;;;;4833387;29;20373;-76
2023/01/02 12:56:19;;;;;;;8.50;1.77;;;19.10;72.80;;;;;;4847703;29;20213;-76
2023/01/02 12:58:48;;;;;;;6.25;1.60;;;19.10;72.50;;;;;;4833499;29;20027;-77
2023/01/02 13:01:45;;;;;;;5.97;1.33;;;19.10;72.50;;;;;;4848069;29;20268;-75
2023/01/02 13:04:24;;;;;;;7.15;1.77;;;19.10;72.70;;;;;;4833971;29;20042;-75
2023/01/02 13:07:16;;;;;;;7.45;2.40;;;19.40;72.90;;;;;;4844670;29;20045;-76
2023/01/02 13:09:44;;;;;;;6.95;2.05;;;19.40;72.50;;;;;;4851868;29;20036;-76
2023/01/02 13:12:12;;;;;;;8.80;2.15;;;19.30;72.40;;;;;;4851221;29;20034;-76
2023/01/02 13:14:41;;;;;;;;;;;19.20;72.50;;;;;;4851302;29;20061;-76
2023/01/02 13:17:07;;;;;;;;;;;19.30;72.40;;;;;;4851662;29;20002;-76
2023/01/02 13:19:38;;;;;;;6.53;1.88;;;19.50;72.50;;;;;;4850616;29;20200;-75
2023/01/02 13:22:22;;;;;;;6.68;1.83;;;19.50;72.30;;;;;;4850005;29;20041;-75
2023/01/02 13:24:51;;;;;;;10.23;1.95;;;19.40;72.20;;;;;;4849829;29;20034;-75
2023/01/02 13:27:17;;;;;;;5.15;1.60;;;19.40;72.50;;;;;;4851424;29;20057;-75
2023/01/02 13:29:45;;;;;;;6.53;1.77;;;19.40;72.60;;;;;;4850580;29;20322;-76
2023/01/02 13:32:13;;;;;;;12.23;3.00;;;19.40;72.00;;;;;;4850933;29;20323;-75
2023/01/02 13:34:51;;;;;;;8.70;1.98;;;19.20;72.60;;;;;;4850719;29;20038;-76
2023/01/02 13:37:18;;;;;;;;;;;19.00;72.50;;;;;;4852373;29;20109;-75
2023/01/02 13:39:52;;;;;;;5.55;2.10;;;18.80;73.50;;;;;;4850401;29;19915;-76
2023/01/02 13:45:29;;;;;;;6.00;1.58;;;18.50;74.00;;;;;;4851256;29;20034;-76
2023/01/02 13:47:59;;;;;;;10.85;2.28;;;18.30;74.50;;;;;;4850777;29;20041;-75
2023/01/02 13:50:29;;;;;;;6.00;1.38;;;18.10;74.70;;;;;;4851145;29;20102;-76
2023/01/02 13:53:11;;;;;;;8.48;1.60;;;18.20;74.90;;;;;;4849667;29;20038;-75
2023/01/02 13:55:40;;;;;;;9.63;1.92;;;18.10;75.00;;;;;;4850240;29;20074;-75
2023/01/02 13:58:13;;;;;;;8.88;1.73;;;18.10;75.30;;;;;;4849477;29;20034;-76
2023/01/02 14:00:44;;;;;;;10.95;1.70;;;18.00;74.60;;;;;;4851042;29;20042;-76
2023/01/02 14:03:22;;;;;;;6.38;1.42;;;17.90;75.20;;;;;;4849092;29;20152;-75
2023/01/02 14:05:57;;;;;;;8.20;1.98;;;17.80;75.20;;;;;;4850030;29;20048;-75
2023/01/02 14:08:32;;;;;;;9.23;1.92;;;17.80;76.70;;;;;;4851294;29;20142;-77
2023/01/02 14:11:06;;;;;;;6.28;1.83;;;17.70;76.00;;;;;;4849543;29;20154;-77
2023/01/02 14:13:49;;;;;;;10.70;1.95;;;17.60;75.60;;;;;;4850936;29;20030;-76
2023/01/02 14:16:31;;;;;;;7.05;1.85;;;17.50;76.00;;;;;;4850894;29;20030;-76
2023/01/02 14:19:17;;;;;;;8.40;1.92;;;17.50;76.10;;;;;;4850420;29;20041;-76
2023/01/02 14:21:48;;;;;;;8.73;2.08;;;17.40;76.00;;;;;;4849330;29;20065;-76
2023/01/02 14:24:39;;;;;;;9.95;1.85;;;17.40;76.10;;;;;;4850486;29;20042;-77
2023/01/02 14:27:13;;;;;;;12.55;2.05;;;17.30;76.40;;;;;;4850419;29;20299;-76
2023/01/02 14:29:48;;;;;;;9.60;1.83;;;17.30;76.80;;;;;;4850914;29;20128;-75
2023/01/02 14:32:21;;;;;;;13.02;2.13;;;17.30;76.80;;;;;;4849308;29;20172;-75
2023/01/02 14:34:51;;;;;;;8.93;1.98;;;17.20;77.00;;;;;;4849321;29;20335;-75
2023/01/02 14:37:51;;;;;;;10.07;2.08;;;17.10;77.00;;;;;;4849442;29;20092;-76
2023/01/02 14:40:23;;;;;;;9.75;1.95;;;17.10;77.10;;;;;;4849894;29;20131;-76
2023/01/02 14:46:19;;;;;;;9.90;1.60;;;16.90;78.10;;;;;;4850701;29;20033;-76
2023/01/02 14:48:57;;;;;;;10.02;1.70;;;16.90;78.40;;;;;;4850569;29;20056;-76
2023/01/02 14:51:23;;;;;;;;;;;16.80;78.50;;;;;;4850213;29;20044;-76
2023/01/02 14:53:53;;;;;;;9.00;1.92;;;16.70;78.80;;;;;;4849621;29;19987;-75
2023/01/02 14:56:23;;;;;;;10.52;1.95;;;16.70;79.20;;;;;;4849019;29;20045;-75
2023/01/02 14:58:50;;;;;;;8.10;2.20;;;16.70;79.70;;;;;;4858606;29;20038;-76
2023/01/02 15:01:20;;;;;;;12.40;2.28;;;16.60;79.70;;;;;;4859689;29;20053;-75
2023/01/02 15:04:05;;;;;;;10.23;2.30;;;16.50;79.80;;;;;;4867830;29;20083;-75
2023/01/02 15:06:40;;;;;;;10.80;2.10;;;16.50;80.30;;;;;;4862321;29;20360;-79
2023/01/02 15:09:19;;;;;;;7.07;1.98;;;16.40;80.00;;;;;;4869804;29;20274;-78
2023/01/02 15:14:39;;;;;;;9.93;2.33;;;16.30;80.50;;;;;;4856516;29;20049;-81
2023/01/02 15:17:09;;;;;;;14.90;2.90;;;16.40;81.00;;;;;;4850055;29;20034;-80
2023/01/02 15:19:37;;;;;;;9.30;1.70;;;16.30;81.10;;;;;;4850220;29;20030;-81
2023/01/02 15:22:17;;;;;;;9.18;1.70;;;16.30;81.30;;;;;;4849276;29;20030;-79
2023/01/02 15:24:51;;;;;;;6.88;1.67;;;16.20;81.40;;;;;;4850120;29;20064;-80
2023/01/02 15:27:26;;;;;;;7.40;2.47;;;16.20;81.70;;;;;;4849168;29;20248;-79
2023/01/02 15:29:58;;;;;;;9.75;1.98;;;16.20;82.20;;;;;;4850767;29;20197;-80
2023/01/02 15:32:32;;;;;;;6.88;1.70;;;16.10;82.90;;;;;;4833896;29;20385;-77
2023/01/02 15:35:18;;;;;;;8.70;1.90;;;16.00;83.80;;;;;;4835344;29;20236;-81
2023/01/02 15:37:46;;;;;;;7.65;2.00;;;15.90;84.30;;;;;;4834666;29;20030;-76
2023/01/02 15:40:34;;;;;;;7.75;2.30;;;15.80;85.10;;;;;;4834953;29;20369;-77
2023/01/02 15:45:50;;;;;;;;;;;15.60;86.30;;;;;;4834945;29;20379;-75
2023/01/02 15:48:19;;;;;;;10.23;1.80;;;15.50;87.20;;;;;;4833958;29;19944;-78
2023/01/02 15:50:48;;;;;;;8.50;2.75;;;15.30;88.10;;;;;;4843822;29;20067;-76
2023/01/02 15:53:26;;;;;;;8.52;2.00;;;15.30;88.80;;;;;;4852322;29;20053;-75
2023/01/02 15:55:52;;;;;;;7.38;1.75;;;15.20;89.80;;;;;;4853391;29;20316;-76
2023/01/02 15:58:17;;;;;;;6.40;2.10;;;15.10;90.20;;;;;;4852787;29;20040;-76
2023/01/02 16:00:44;;;;;;;7.88;2.00;;;15.00;90.50;;;;;;4852031;29;20323;-75
2023/01/02 16:03:37;;;;;;;6.65;1.90;;;14.90;90.80;;;;;;4852921;29;20060;-76
2023/01/02 16:06:10;;;;;;;8.65;2.17;;;14.90;91.10;;;;;;4867229;29;20235;-77
2023/01/02 16:08:36;;;;;;;7.10;1.90;;;14.70;91.40;;;;;;4855288;29;20239;-78
2023/01/02 16:11:03;;;;;;;7.05;1.60;;;14.70;91.60;;;;;;4870329;29;20033;-76
2023/01/02 16:16:33;;;;;;;9.20;1.80;;;14.60;92.10;;;;;;4872367;29;20041;-76
2023/01/02 16:18:59;;;;;;;10.55;1.85;;;14.50;92.20;;;;;;4872193;29;20069;-75
2023/01/02 16:21:31;;;;;;;12.88;2.20;;;14.50;92.30;;;;;;4872027;29;20254;-76
2023/01/02 16:23:58;;;;;;;6.25;2.13;;;14.40;92.50;;;;;;4875362;29;20029;-76
2023/01/02 16:26:30;;;;;;;9.35;2.33;;;14.40;92.60;;;;;;4872648;29;20371;-76
2023/01/02 16:28:57;;;;;;;8.70;1.80;;;14.30;93.10;;;;;;4871336;29;20224;-76
2023/01/02 16:31:23;;;;;;;5.45;1.67;;;14.30;93.10;;;;;;4871375;29;20041;-77
2023/01/02 16:33:49;;;;;;;7.10;1.73;;;14.20;93.50;;;;;;4869923;29;20112;-77
2023/01/02 16:36:20;;;;;;;6.63;1.77;;;14.10;93.80;;;;;;4870807;29;20040;-75
2023/01/02 16:38:54;;;;;;;5.50;1.98;;;14.10;94.00;;;;;;4871151;29;20038;-75
2023/01/02 16:41:33;;;;;;;4.38;1.67;;;14.10;94.20;;;;;;4870571;29;20029;-80
2023/01/02 16:43:59;;;;;;;;;;;14.00;94.30;;;;;;4850963;29;20034;-77
2023/01/02 16:46:27;;;;;;;5.90;1.60;;;14.00;94.70;;;;;;4852485;29;19931;-76
2023/01/02 16:48:53;;;;;;;;;;;13.90;95.00;;;;;;4853169;29;20311;-77
2023/01/02 16:51:19;;;;;;;5.82;1.75;;;13.90;95.30;;;;;;4852228;29;19965;-77
2023/01/02 16:53:45;;;;;;;4.28;1.60;;;13.90;95.60;;;;;;4852749;29;20045;-77
2023/01/02 16:56:12;;;;;;;9.95;1.77;;;13.80;95.80;;;;;;4851687;29;20324;-77
2023/01/02 16:58:38;;;;;;;5.72;1.75;;;13.80;95.90;;;;;;4852553;29;20038;-75
2023/01/02 17:01:04;;;;;;;3.97;1.60;;;13.80;96.00;;;;;;4851788;29;20038;-77
2023/01/02 17:03:30;;;;;;;5.35;1.83;;;13.80;96.20;;;;;;4852275;29;20049;-77
2023/01/02 17:05:59;;;;;;;5.25;1.60;;;13.80;96.40;;;;;;4866722;29;20033;-78
2023/01/02 17:08:25;;;;;;;11.05;1.85;;;13.80;96.60;;;;;;4869512;29;20036;-77
2023/01/02 17:10:51;;;;;;;5.50;1.52;;;13.80;96.70;;;;;;4870508;29;20038;-77
2023/01/02 17:13:17;;;;;;;8.07;1.73;;;13.70;97.00;;;;;;4869044;29;20033;-77
2023/01/02 17:15:42;;;;;;;5.75;1.70;;;13.70;97.20;;;;;;4870612;29;20030;-77
2023/01/02 17:18:08;;;;;;;5.00;1.85;;;13.70;97.50;;;;;;4869990;29;20034;-77
2023/01/02 17:20:36;;;;;;;8.02;2.00;;;13.60;97.60;;;;;;4870585;29;20037;-76
2023/01/02 17:23:03;;;;;;;6.82;1.98;;;13.60;97.80;;;;;;4870109;29;20140;-78
2023/01/02 17:25:29;;;;;;;7.93;2.17;;;13.60;98.10;;;;;;4870714;29;20067;-77
2023/01/02 17:27:55;;;;;;;5.65;1.80;;;13.60;98.30;;;;;;4870128;29;20066;-76
2023/01/02 17:30:24;;;;;;;9.52;2.20;;;13.50;98.50;;;;;;4868472;29;20315;-77
2023/01/02 17:32:51;;;;;;;7.60;1.83;;;13.60;98.70;;;;;;4870122;29;20037;-77
2023/01/02 17:35:18;;;;;;;4.97;1.80;;;13.60;98.70;;;;;;4869746;29;20261;-77
2023/01/02 17:37:47;;;;;;;5.18;1.33;;;13.60;98.90;;;;;;4870052;29;20037;-77
2023/01/02 17:40:13;;;;;;;8.93;2.20;;;13.70;99.10;;;;;;4869624;29;20056;-75
2023/01/02 17:42:39;;;;;;;7.95;2.50;;;13.60;99.30;;;;;;4870442;29;20299;-77
2023/01/02 17:45:08;;;;;;;8.88;2.40;;;13.60;99.50;;;;;;4869947;29;20044;-76
2023/01/02 17:47:34;;;;;;;5.60;1.90;;;13.50;99.70;;;;;;4868959;29;20108;-76
2023/01/02 17:50:00;;;;;;;8.00;2.03;;;13.40;99.90;;;;;;4870050;29;20208;-76
2023/01/02 17:52:26;;;;;;;5.88;2.13;;;13.40;99.90;;;;;;4870093;29;20033;-75
2023/01/02 17:54:52;;;;;;;5.78;1.65;;;13.40;99.90;;;;;;4868611;29;20040;-77
2023/01/02 17:57:19;;;;;;;6.53;2.17;;;13.40;99.90;;;;;;4859197;29;20030;-73
2023/01/02 17:59:45;;;;;;;7.13;2.30;;;13.40;99.90;;;;;;4851598;29;20216;-73
2023/01/02 18:02:16;;;;;;;7.35;2.42;;;13.40;99.90;;;;;;4850944;29;20279;-79
2023/01/02 18:04:45;;;;;;;6.93;1.98;;;13.40;99.90;;;;;;4856012;29;20376;-79
2023/01/02 18:07:13;;;;;;;7.80;2.13;;;13.30;99.90;;;;;;4869402;29;20315;-77
2023/01/02 18:09:40;;;;;;;8.35;2.47;;;13.30;99.90;;;;;;4869320;29;20103;-75
2023/01/02 18:12:07;;;;;;;8.68;2.47;;;13.30;99.90;;;;;;4863323;29;20061;-77
2023/01/02 18:14:33;;;;;;;7.85;2.10;;;13.20;99.90;;;;;;4859233;29;20030;-75
2023/01/02 18:17:11;;;;;;;5.47;2.00;;;13.20;99.90;;;;;;4860875;29;20316;-76
2023/01/02 18:19:37;;;;;;;4.53;1.55;;;13.20;99.90;;;;;;4851404;29;20038;-76
2023/01/02 18:22:15;;;;;;;4.15;1.88;;;13.20;99.90;;;;;;4866222;29;20196;-76
2023/01/02 18:24:41;;;;;;;6.50;2.60;;;13.30;99.90;;;;;;4850903;29;20304;-75
2023/01/02 18:27:23;;;;;;;10.10;2.17;;;13.30;99.90;;;;;;4850919;29;20045;-80
2023/01/02 18:29:55;;;;;;;5.13;1.88;;;13.30;99.90;;;;;;4860669;29;20045;-77
2023/01/02 18:32:32;;;;;;;5.03;1.52;;;13.20;99.90;;;;;;4854879;29;20042;-77
2023/01/02 18:34:58;;;;;;;6.53;1.48;;;13.20;99.90;;;;;;4851180;29;20033;-76
2023/01/02 18:37:27;;;;;;;2.72;0.98;;;13.10;99.90;;;;;;4850618;29;20046;-76
2023/01/02 18:39:54;;;;;;;3.63;0.98;;;13.00;99.90;;;;;;4849632;29;20258;-77
2023/01/02 18:42:31;;;;;;;3.07;0.90;;;12.90;99.90;;;;;;4850648;29;20038;-77
2023/01/02 18:44:59;;;;;;;4.07;0.80;;;12.90;99.90;;;;;;4851315;29;20348;-77
2023/01/02 18:47:30;;;;;;;3.00;0.60;;;12.80;99.90;;;;;;4862816;29;20036;-78
2023/01/02 18:50:11;;;;;;;2.00;0.95;;;12.70;99.90;;;;;;4868995;29;20033;-77
2023/01/02 18:52:42;;;;;;;2.40;0.70;;;12.80;99.90;;;;;;4869488;29;20049;-76
2023/01/02 18:55:10;;;;;;;2.65;0.80;;;12.70;99.90;;;;;;4868705;29;20033;-77
2023/01/02 18:57:54;;;;;;;4.55;0.60;;;12.60;99.90;;;;;;4857086;29;20060;-76
2023/01/02 19:00:27;;;;;;;2.70;0.60;;;12.50;99.90;;;;;;4850085;29;20040;-77
2023/01/02 19:03:01;;;;;;;2.05;0.57;;;12.50;99.90;;;;;;4850501;29;20057;-76
2023/01/02 19:05:30;;;;;;;1.92;0.30;;;12.50;99.90;;;;;;4861090;29;20055;-76
2023/01/02 19:08:07;;;;;;;1.50;0.40;;;12.40;99.90;;;;;;4871631;29;20045;-77
2023/01/02 19:10:39;;;;;;;1.20;0.40;;;12.40;99.90;;;;;;4872645;29;20093;-75
2023/01/02 19:13:30;;;;;;;0.65;0.30;;;12.30;99.90;;;;;;4872599;29;20203;-75
2023/01/02 19:16:22;;;;;;;0.85;0.20;;;12.20;99.90;;;;;;4872829;29;20199;-74
2023/01/02 19:18:52;;;;;;;0.40;0.17;;;12.00;99.90;;;;;;4870229;29;20041;-76
2023/01/02 19:21:26;;;;;;;1.00;0.25;;;11.90;99.90;;;;;;4860040;29;20034;-75
2023/01/02 19:23:57;;;;;;;0.95;0.30;;;11.90;99.90;;;;;;4852984;29;20072;-76
2023/01/02 19:26:39;;;;;;;0.95;0.30;;;11.80;99.90;;;;;;4853391;29;20056;-75
2023/01/02 19:29:11;;;;;;;2.70;1.10;;;11.80;99.90;;;;;;4853667;29;20376;-75
2023/01/02 19:31:41;;;;;;;1.05;0.43;;;11.70;99.90;;;;;;4853532;29;20046;-75
2023/01/02 19:34:42;;;;;;;1.63;0.40;;;11.60;99.90;;;;;;4853500;29;20326;-75